German Flatts, New York
Current Conditions -  °F | °C
As of 3:53 PM on Saturday 20 Dec 2014 (Local Time) from KRME Reporting Station
Scattered Clouds Scattered Clouds  
Wind Chill: -6°   Ceiling: Unl
Heat Index: -2°   Visibility: 10mi
Dew Point: -7°   Wind: 6mph
Humidity: 69%   Direction: 90°E
Pressure: 30.27"   Gusts: NA
Location:  42.9627°N, 74.9432°W
Report Text: KRME 202053Z 09005KT 10SM SCT023 M02/M07 A3027 RMK AO2 SLP257 T10221072 55008
Loading
Personal Weather Stations






























Interactive Weather Map New forecast layout! Learn more

10-Day Weather Forecast

Advertisements
Track Severe Weather on mobile